Dobrodošli na spletni strani vremenske postaje Senovo. Vse informacije so informativnega značaja, saj vremenska postaja ni del državne mreže meteoroloških postaj.

AKTUALNIH OBVESTIL NI.


Posebna pozornost v zvezi z vremenskimi dogajanji ni potrebna.    Posebna pozornost v zvezi z vremenskimi dogajanji ni potrebna.

Pogled proti Armezu več informacij Pogled proti Armezu


Bohor več informacij Bohor


Lisca več informacij Lisca


Radar strel več informacij blitzortung!


Radar padavin več informacij rain snow radar


Obiščite še:

Template documentation
and downloads

And another site



METAR v bližini

   
LJLJ - Ljubljana
Posodobljeno: 16-08-2018 21:00
jasno  
jasno  
   Veter: JJV 3.7 km/h
Veter: JJV 3.7 km/h
Temperatura: 18°C
Točka rosišča: 16°C
Vlažnost: 88%
Zračni tlak: 1017 hPa
Vidljivost: More than 10 km
Podrobnosti o oblakih: jasno
LJLJ 161900Z 16002KT CAVOK 18/16 Q1017 NOSIG
LJCE - Cerklje ob Krki
Posodobljeno: 16-08-2018 21:00
jasno  
jasno  
   Veter: Brezveterje
Veter: Brezveterje
Temperatura: 21°C
Točka rosišča: 16°C
Vlažnost: 73%
Zračni tlak: 1016 hPa
Vidljivost: More than 10 km
Podrobnosti o oblakih: jasno
LJCE 161900Z 00000KT CAVOK 21/16 Q1016 RMK BLU
LJMB - Maribor
Posodobljeno: 16-08-2018 21:00
jasno  
jasno  
   Veter: SZ 3.7 km/h
Veter: SZ 3.7 km/h
Temperatura: 20°C
Točka rosišča: 14°C
Vlažnost: 69%
Zračni tlak: 1017 hPa
Vidljivost: More than 10 km
Podrobnosti o oblakih: jasno
LJMB 161900Z 32002KT CAVOK 20/14 Q1017
LJPZ - Portorož
Posodobljeno: 16-08-2018 21:00
jasno  
jasno  
   Veter: VJV 7.4 km/h
Veter: VJV 7.4 km/h
Temperatura: 23°C
Točka rosišča: 17°C
Vlažnost: 69%
Zračni tlak: 1014 hPa
Vidljivost: More than 10 km
Podrobnosti o oblakih: jasno
LJPZ 161900Z 12004KT CAVOK 23/17 Q1014
LDRI - Rijeka, Airport, Croatia
Posodobljeno: 16-08-2018 21:00
jasno  
jasno  
   Veter: VSV 20.4 km/h
Veter: VSV 20.4 km/h
Temperatura: 27°C
toplotni index: 27°C
Točka rosišča: 14°C
Vlažnost: 45%
Zračni tlak: 1014 hPa
Vidljivost: More than 10 km
Podrobnosti o oblakih: jasno
LDRI 161900Z 07011KT 040V100 CAVOK 27/14 Q1014
LOWK - Klagenfurt, Airport, Avstia
Posodobljeno: 16-08-2018 21:20
delno oblačno  
delno oblačno  
   Veter: Vzhod 5.6 km/h
Veter: Vzhod 5.6 km/h
Temperatura: 23°C
Točka rosišča: 12°C
Vlažnost: 50%
Zračni tlak: 1017 hPa
Oblaki: delno oblačno
Vidljivost: More than 10 km
Podrobnosti o oblakih: delno oblačno
LOWK 161920Z AUTO 08003KT 360V170 9999 NSC 23/12 Q1017 NOSIG

Script developed by  Saratoga-weather.org Adapted for the template by  Weerstation Leuven

Vremenski podatki so objavljeni na:

European Weather Network

WeatherCloud

Weather Underground

AWEKAS

HAMweather, WeatherForYou, PWS Weather

MapView

Geostik

Slovenia weather network

Oprema, ki se uporablja:

Vremenski program
Cumulus

Vremenski server
Asus

Cumulus

Asus